sensor_id;sensor_type;location;lat;lon;timestamp;P1;durP1;ratioP1;P2;durP2;ratioP2
57746;SDS011;43580;44.014;20.466;2022-12-05T00:02:12;34.75;;;18.98;;
57746;SDS011;43580;44.014;20.466;2022-12-05T00:04:41;26.30;;;15.45;;
57746;SDS011;43580;44.014;20.466;2022-12-05T00:07:08;31.85;;;18.13;;
57746;SDS011;43580;44.014;20.466;2022-12-05T00:09:34;27.35;;;16.15;;
57746;SDS011;43580;44.014;20.466;2022-12-05T00:12:00;38.08;;;21.42;;
57746;SDS011;43580;44.014;20.466;2022-12-05T00:14:26;38.70;;;20.98;;
57746;SDS011;43580;44.014;20.466;2022-12-05T00:16:52;40.50;;;21.48;;
57746;SDS011;43580;44.014;20.466;2022-12-05T00:19:18;34.50;;;19.33;;
57746;SDS011;43580;44.014;20.466;2022-12-05T00:21:44;42.17;;;23.30;;
57746;SDS011;43580;44.014;20.466;2022-12-05T00:24:13;33.40;;;19.25;;
57746;SDS011;43580;44.014;20.466;2022-12-05T00:26:43;35.75;;;19.60;;
57746;SDS011;43580;44.014;20.466;2022-12-05T00:29:09;33.40;;;19.77;;
57746;SDS011;43580;44.014;20.466;2022-12-05T00:31:36;28.50;;;17.80;;
57746;SDS011;43580;44.014;20.466;2022-12-05T00:34:02;28.33;;;17.80;;
57746;SDS011;43580;44.014;20.466;2022-12-05T00:36:29;29.35;;;16.90;;
57746;SDS011;43580;44.014;20.466;2022-12-05T00:38:57;31.15;;;18.33;;
57746;SDS011;43580;44.014;20.466;2022-12-05T00:41:26;31.02;;;18.15;;
57746;SDS011;43580;44.014;20.466;2022-12-05T00:43:53;44.97;;;24.83;;
57746;SDS011;43580;44.014;20.466;2022-12-05T00:46:20;63.97;;;34.40;;
57746;SDS011;43580;44.014;20.466;2022-12-05T00:48:47;33.35;;;18.40;;
57746;SDS011;43580;44.014;20.466;2022-12-05T00:51:17;29.90;;;17.98;;
57746;SDS011;43580;44.014;20.466;2022-12-05T00:53:46;32.58;;;19.02;;
57746;SDS011;43580;44.014;20.466;2022-12-05T00:56:14;25.98;;;16.13;;
57746;SDS011;43580;44.014;20.466;2022-12-05T00:58:40;36.03;;;20.23;;
57746;SDS011;43580;44.014;20.466;2022-12-05T01:01:14;27.33;;;15.00;;
57746;SDS011;43580;44.014;20.466;2022-12-05T01:03:41;25.02;;;14.13;;
57746;SDS011;43580;44.014;20.466;2022-12-05T01:06:10;28.85;;;15.15;;
57746;SDS011;43580;44.014;20.466;2022-12-05T01:08:36;29.58;;;17.27;;
57746;SDS011;43580;44.014;20.466;2022-12-05T01:11:03;24.30;;;13.38;;
57746;SDS011;43580;44.014;20.466;2022-12-05T01:13:29;26.13;;;13.88;;
57746;SDS011;43580;44.014;20.466;2022-12-05T01:15:56;24.80;;;14.73;;
57746;SDS011;43580;44.014;20.466;2022-12-05T01:18:24;25.20;;;15.30;;
57746;SDS011;43580;44.014;20.466;2022-12-05T01:20:51;30.77;;;16.90;;
57746;SDS011;43580;44.014;20.466;2022-12-05T01:23:18;30.95;;;16.60;;
57746;SDS011;43580;44.014;20.466;2022-12-05T01:25:46;23.13;;;14.15;;
57746;SDS011;43580;44.014;20.466;2022-12-05T01:28:13;24.95;;;14.50;;
57746;SDS011;43580;44.014;20.466;2022-12-05T01:30:40;26.05;;;15.45;;
57746;SDS011;43580;44.014;20.466;2022-12-05T01:33:06;24.55;;;14.23;;
57746;SDS011;43580;44.014;20.466;2022-12-05T01:35:32;25.35;;;14.63;;
57746;SDS011;43580;44.014;20.466;2022-12-05T01:37:58;33.25;;;18.38;;
57746;SDS011;43580;44.014;20.466;2022-12-05T01:40:25;35.28;;;20.67;;
57746;SDS011;43580;44.014;20.466;2022-12-05T01:42:51;40.50;;;22.10;;
57746;SDS011;43580;44.014;20.466;2022-12-05T01:45:19;43.53;;;24.08;;
57746;SDS011;43580;44.014;20.466;2022-12-05T01:47:47;44.03;;;24.40;;
57746;SDS011;43580;44.014;20.466;2022-12-05T01:50:13;40.92;;;22.70;;
57746;SDS011;43580;44.014;20.466;2022-12-05T01:52:39;51.10;;;27.35;;
57746;SDS011;43580;44.014;20.466;2022-12-05T01:55:07;74.00;;;32.17;;
57746;SDS011;43580;44.014;20.466;2022-12-05T01:57:35;79.03;;;32.72;;
57746;SDS011;43580;44.014;20.466;2022-12-05T02:00:04;64.05;;;28.48;;
57746;SDS011;43580;44.014;20.466;2022-12-05T02:02:31;76.65;;;35.30;;
57746;SDS011;43580;44.014;20.466;2022-12-05T02:05:00;88.78;;;40.45;;
57746;SDS011;43580;44.014;20.466;2022-12-05T02:07:27;48.55;;;24.25;;
57746;SDS011;43580;44.014;20.466;2022-12-05T02:09:53;38.40;;;23.10;;
57746;SDS011;43580;44.014;20.466;2022-12-05T02:12:19;34.13;;;18.90;;
57746;SDS011;43580;44.014;20.466;2022-12-05T02:30:17;29.30;;;17.08;;
57746;SDS011;43580;44.014;20.466;2022-12-05T02:32:57;31.08;;;18.30;;
57746;SDS011;43580;44.014;20.466;2022-12-05T02:38:17;35.25;;;19.92;;
57746;SDS011;43580;44.014;20.466;2022-12-05T02:40:53;39.47;;;21.27;;
57746;SDS011;43580;44.014;20.466;2022-12-05T02:45:47;29.95;;;17.17;;
57746;SDS011;43580;44.014;20.466;2022-12-05T02:48:16;24.95;;;14.80;;
57746;SDS011;43580;44.014;20.466;2022-12-05T02:50:43;28.58;;;17.02;;
57746;SDS011;43580;44.014;20.466;2022-12-05T02:53:11;28.23;;;16.85;;
57746;SDS011;43580;44.014;20.466;2022-12-05T02:55:39;39.47;;;20.63;;
57746;SDS011;43580;44.014;20.466;2022-12-05T02:58:12;36.90;;;20.63;;
57746;SDS011;43580;44.014;20.466;2022-12-05T03:00:41;30.15;;;17.92;;
57746;SDS011;43580;44.014;20.466;2022-12-05T03:03:14;24.23;;;15.00;;
57746;SDS011;43580;44.014;20.466;2022-12-05T03:05:56;43.90;;;24.25;;
57746;SDS011;43580;44.014;20.466;2022-12-05T03:08:26;59.47;;;32.50;;
57746;SDS011;43580;44.014;20.466;2022-12-05T03:10:53;48.85;;;28.27;;
57746;SDS011;43580;44.014;20.466;2022-12-05T03:13:26;45.35;;;25.90;;
57746;SDS011;43580;44.014;20.466;2022-12-05T03:15:54;46.42;;;26.77;;
57746;SDS011;43580;44.014;20.466;2022-12-05T03:18:32;229.77;;;75.07;;
57746;SDS011;43580;44.014;20.466;2022-12-05T03:23:41;292.92;;;92.25;;
57746;SDS011;43580;44.014;20.466;2022-12-05T03:28:58;71.32;;;32.75;;
57746;SDS011;43580;44.014;20.466;2022-12-05T03:31:33;67.30;;;35.67;;
57746;SDS011;43580;44.014;20.466;2022-12-05T03:34:06;93.65;;;41.95;;
57746;SDS011;43580;44.014;20.466;2022-12-05T03:36:43;94.97;;;42.80;;
57746;SDS011;43580;44.014;20.466;2022-12-05T03:39:24;151.35;;;57.50;;
57746;SDS011;43580;44.014;20.466;2022-12-05T03:41:56;155.82;;;56.47;;
57746;SDS011;43580;44.014;20.466;2022-12-05T03:44:22;107.63;;;46.20;;
57746;SDS011;43580;44.014;20.466;2022-12-05T03:46:55;81.53;;;38.33;;
57746;SDS011;43580;44.014;20.466;2022-12-05T03:49:27;70.80;;;32.15;;
57746;SDS011;43580;44.014;20.466;2022-12-05T03:52:17;71.60;;;29.45;;
57746;SDS011;43580;44.014;20.466;2022-12-05T03:54:49;170.40;;;60.28;;
57746;SDS011;43580;44.014;20.466;2022-12-05T03:57:29;46.13;;;16.98;;
57746;SDS011;43580;44.014;20.466;2022-12-05T03:59:58;100.95;;;43.60;;
57746;SDS011;43580;44.014;20.466;2022-12-05T04:02:34;89.38;;;38.08;;
57746;SDS011;43580;44.014;20.466;2022-12-05T04:05:11;85.43;;;34.95;;
57746;SDS011;43580;44.014;20.466;2022-12-05T04:07:39;103.53;;;44.58;;
57746;SDS011;43580;44.014;20.466;2022-12-05T04:10:12;86.85;;;40.78;;
57746;SDS011;43580;44.014;20.466;2022-12-05T04:12:40;69.30;;;35.22;;
57746;SDS011;43580;44.014;20.466;2022-12-05T04:15:29;84.45;;;39.35;;
57746;SDS011;43580;44.014;20.466;2022-12-05T04:18:18;108.95;;;52.22;;
57746;SDS011;43580;44.014;20.466;2022-12-05T04:20:50;104.43;;;52.92;;
57746;SDS011;43580;44.014;20.466;2022-12-05T04:23:36;86.07;;;38.65;;
57746;SDS011;43580;44.014;20.466;2022-12-05T04:26:20;72.95;;;37.17;;
57746;SDS011;43580;44.014;20.466;2022-12-05T04:28:54;131.93;;;74.03;;
57746;SDS011;43580;44.014;20.466;2022-12-05T04:31:23;71.55;;;38.13;;
57746;SDS011;43580;44.014;20.466;2022-12-05T04:33:56;63.67;;;32.25;;
57746;SDS011;43580;44.014;20.466;2022-12-05T04:36:29;72.78;;;36.35;;
57746;SDS011;43580;44.014;20.466;2022-12-05T04:38:58;75.60;;;39.10;;
57746;SDS011;43580;44.014;20.466;2022-12-05T04:41:27;74.15;;;38.58;;
57746;SDS011;43580;44.014;20.466;2022-12-05T04:43:56;85.13;;;44.28;;
57746;SDS011;43580;44.014;20.466;2022-12-05T04:46:24;79.05;;;43.22;;
57746;SDS011;43580;44.014;20.466;2022-12-05T04:48:54;52.47;;;26.77;;
57746;SDS011;43580;44.014;20.466;2022-12-05T04:51:22;61.33;;;32.58;;
57746;SDS011;43580;44.014;20.466;2022-12-05T04:53:53;62.88;;;31.35;;
57746;SDS011;43580;44.014;20.466;2022-12-05T04:56:19;78.63;;;37.15;;
57746;SDS011;43580;44.014;20.466;2022-12-05T04:58:46;90.35;;;41.63;;
57746;SDS011;43580;44.014;20.466;2022-12-05T05:03:56;83.35;;;36.95;;
57746;SDS011;43580;44.014;20.466;2022-12-05T05:06:23;89.75;;;39.85;;
57746;SDS011;43580;44.014;20.466;2022-12-05T05:08:56;79.97;;;36.08;;
57746;SDS011;43580;44.014;20.466;2022-12-05T05:11:26;77.18;;;40.10;;
57746;SDS011;43580;44.014;20.466;2022-12-05T05:13:52;82.85;;;38.15;;
57746;SDS011;43580;44.014;20.466;2022-12-05T05:16:22;78.13;;;38.30;;
57746;SDS011;43580;44.014;20.466;2022-12-05T05:18:49;82.03;;;38.10;;
57746;SDS011;43580;44.014;20.466;2022-12-05T05:21:20;93.85;;;45.65;;
57746;SDS011;43580;44.014;20.466;2022-12-05T05:23:46;113.47;;;45.97;;
57746;SDS011;43580;44.014;20.466;2022-12-05T05:26:13;97.00;;;44.42;;
57746;SDS011;43580;44.014;20.466;2022-12-05T05:28:39;101.30;;;45.13;;
57746;SDS011;43580;44.014;20.466;2022-12-05T05:31:05;88.68;;;42.85;;
57746;SDS011;43580;44.014;20.466;2022-12-05T05:33:31;82.30;;;43.92;;
57746;SDS011;43580;44.014;20.466;2022-12-05T05:36:02;74.72;;;37.05;;
57746;SDS011;43580;44.014;20.466;2022-12-05T05:38:33;46.30;;;25.08;;
57746;SDS011;43580;44.014;20.466;2022-12-05T05:41:00;60.60;;;29.23;;
57746;SDS011;43580;44.014;20.466;2022-12-05T05:43:29;72.30;;;34.03;;
57746;SDS011;43580;44.014;20.466;2022-12-05T05:45:55;78.20;;;36.33;;
57746;SDS011;43580;44.014;20.466;2022-12-05T05:48:21;61.88;;;31.05;;
57746;SDS011;43580;44.014;20.466;2022-12-05T05:50:47;73.95;;;33.50;;
57746;SDS011;43580;44.014;20.466;2022-12-05T05:53:13;94.90;;;43.53;;
57746;SDS011;43580;44.014;20.466;2022-12-05T05:55:40;87.75;;;41.70;;
57746;SDS011;43580;44.014;20.466;2022-12-05T05:58:06;86.25;;;41.13;;
57746;SDS011;43580;44.014;20.466;2022-12-05T06:00:33;75.47;;;39.75;;
57746;SDS011;43580;44.014;20.466;2022-12-05T06:02:59;86.40;;;44.50;;
57746;SDS011;43580;44.014;20.466;2022-12-05T06:05:25;93.47;;;50.83;;
57746;SDS011;43580;44.014;20.466;2022-12-05T06:07:54;87.80;;;43.90;;
57746;SDS011;43580;44.014;20.466;2022-12-05T06:10:20;72.30;;;35.92;;
57746;SDS011;43580;44.014;20.466;2022-12-05T06:12:46;48.20;;;26.15;;
57746;SDS011;43580;44.014;20.466;2022-12-05T06:15:12;52.92;;;31.85;;
57746;SDS011;43580;44.014;20.466;2022-12-05T06:17:38;33.63;;;19.10;;
57746;SDS011;43580;44.014;20.466;2022-12-05T06:20:05;30.98;;;17.00;;
57746;SDS011;43580;44.014;20.466;2022-12-05T06:22:31;29.58;;;17.60;;
57746;SDS011;43580;44.014;20.466;2022-12-05T06:24:57;33.28;;;20.17;;
57746;SDS011;43580;44.014;20.466;2022-12-05T06:27:23;53.53;;;30.50;;
57746;SDS011;43580;44.014;20.466;2022-12-05T06:29:50;75.93;;;41.17;;
57746;SDS011;43580;44.014;20.466;2022-12-05T06:32:16;72.00;;;36.67;;
57746;SDS011;43580;44.014;20.466;2022-12-05T06:34:43;88.28;;;42.75;;
57746;SDS011;43580;44.014;20.466;2022-12-05T06:37:09;89.60;;;44.08;;
57746;SDS011;43580;44.014;20.466;2022-12-05T06:39:35;71.63;;;41.55;;
57746;SDS011;43580;44.014;20.466;2022-12-05T06:42:01;65.97;;;38.92;;
57746;SDS011;43580;44.014;20.466;2022-12-05T06:44:28;49.40;;;29.75;;
57746;SDS011;43580;44.014;20.466;2022-12-05T06:46:54;66.03;;;38.72;;
57746;SDS011;43580;44.014;20.466;2022-12-05T06:49:21;67.10;;;41.70;;
57746;SDS011;43580;44.014;20.466;2022-12-05T06:51:56;75.13;;;43.90;;
57746;SDS011;43580;44.014;20.466;2022-12-05T06:54:23;52.63;;;31.63;;
57746;SDS011;43580;44.014;20.466;2022-12-05T06:56:49;106.78;;;62.50;;
57746;SDS011;43580;44.014;20.466;2022-12-05T06:59:15;69.45;;;38.95;;
57746;SDS011;43580;44.014;20.466;2022-12-05T07:01:41;46.78;;;27.90;;
57746;SDS011;43580;44.014;20.466;2022-12-05T07:04:14;64.43;;;34.42;;
57746;SDS011;43580;44.014;20.466;2022-12-05T07:06:41;45.33;;;26.15;;
57746;SDS011;43580;44.014;20.466;2022-12-05T07:09:08;55.70;;;33.10;;
57746;SDS011;43580;44.014;20.466;2022-12-05T07:11:34;53.13;;;31.10;;
57746;SDS011;43580;44.014;20.466;2022-12-05T07:14:01;36.72;;;22.42;;
57746;SDS011;43580;44.014;20.466;2022-12-05T07:16:27;80.97;;;42.38;;
57746;SDS011;43580;44.014;20.466;2022-12-05T07:18:53;102.38;;;46.30;;
57746;SDS011;43580;44.014;20.466;2022-12-05T07:21:19;53.92;;;27.63;;
57746;SDS011;43580;44.014;20.466;2022-12-05T07:23:48;37.67;;;21.48;;
57746;SDS011;43580;44.014;20.466;2022-12-05T07:26:15;41.97;;;24.65;;
57746;SDS011;43580;44.014;20.466;2022-12-05T07:28:41;34.38;;;20.02;;
57746;SDS011;43580;44.014;20.466;2022-12-05T07:31:08;39.22;;;23.88;;
57746;SDS011;43580;44.014;20.466;2022-12-05T07:33:35;113.97;;;58.95;;
57746;SDS011;43580;44.014;20.466;2022-12-05T07:36:03;42.20;;;25.20;;
57746;SDS011;43580;44.014;20.466;2022-12-05T07:38:30;35.85;;;22.23;;
57746;SDS011;43580;44.014;20.466;2022-12-05T07:40:58;54.67;;;33.53;;
57746;SDS011;43580;44.014;20.466;2022-12-05T07:43:25;85.55;;;45.53;;
57746;SDS011;43580;44.014;20.466;2022-12-05T07:45:51;47.58;;;26.50;;
57746;SDS011;43580;44.014;20.466;2022-12-05T07:48:17;50.00;;;26.30;;
57746;SDS011;43580;44.014;20.466;2022-12-05T07:50:43;51.80;;;31.13;;
57746;SDS011;43580;44.014;20.466;2022-12-05T07:53:09;30.05;;;19.15;;
57746;SDS011;43580;44.014;20.466;2022-12-05T07:55:36;21.90;;;12.73;;
57746;SDS011;43580;44.014;20.466;2022-12-05T07:58:02;30.40;;;16.02;;
57746;SDS011;43580;44.014;20.466;2022-12-05T08:00:30;25.02;;;13.82;;
57746;SDS011;43580;44.014;20.466;2022-12-05T08:02:56;30.92;;;17.50;;
57746;SDS011;43580;44.014;20.466;2022-12-05T08:05:27;36.60;;;18.77;;
57746;SDS011;43580;44.014;20.466;2022-12-05T08:07:54;49.53;;;24.27;;
57746;SDS011;43580;44.014;20.466;2022-12-05T08:10:20;57.38;;;25.52;;
57746;SDS011;43580;44.014;20.466;2022-12-05T08:12:46;72.75;;;31.33;;
57746;SDS011;43580;44.014;20.466;2022-12-05T08:15:12;61.67;;;30.08;;
57746;SDS011;43580;44.014;20.466;2022-12-05T08:17:38;26.48;;;11.93;;
57746;SDS011;43580;44.014;20.466;2022-12-05T08:20:07;28.17;;;17.35;;
57746;SDS011;43580;44.014;20.466;2022-12-05T08:22:33;34.30;;;20.30;;
57746;SDS011;43580;44.014;20.466;2022-12-05T08:24:59;40.67;;;21.92;;
57746;SDS011;43580;44.014;20.466;2022-12-05T08:27:28;45.10;;;25.70;;
57746;SDS011;43580;44.014;20.466;2022-12-05T08:29:54;36.10;;;21.88;;
57746;SDS011;43580;44.014;20.466;2022-12-05T08:32:20;29.60;;;17.55;;
57746;SDS011;43580;44.014;20.466;2022-12-05T08:34:48;24.30;;;12.52;;
57746;SDS011;43580;44.014;20.466;2022-12-05T08:37:15;36.50;;;21.98;;
57746;SDS011;43580;44.014;20.466;2022-12-05T08:39:41;36.00;;;20.88;;
57746;SDS011;43580;44.014;20.466;2022-12-05T08:42:07;34.13;;;21.33;;
57746;SDS011;43580;44.014;20.466;2022-12-05T08:44:33;27.75;;;16.98;;
57746;SDS011;43580;44.014;20.466;2022-12-05T08:46:59;23.35;;;12.98;;
57746;SDS011;43580;44.014;20.466;2022-12-05T08:49:25;29.70;;;17.48;;
57746;SDS011;43580;44.014;20.466;2022-12-05T08:51:52;31.85;;;18.15;;
57746;SDS011;43580;44.014;20.466;2022-12-05T08:54:21;22.20;;;12.93;;
57746;SDS011;43580;44.014;20.466;2022-12-05T08:56:49;35.95;;;20.83;;
57746;SDS011;43580;44.014;20.466;2022-12-05T08:59:15;20.40;;;11.60;;
57746;SDS011;43580;44.014;20.466;2022-12-05T09:01:41;39.50;;;22.55;;
57746;SDS011;43580;44.014;20.466;2022-12-05T09:04:07;36.35;;;20.95;;
57746;SDS011;43580;44.014;20.466;2022-12-05T09:06:34;30.13;;;17.40;;
57746;SDS011;43580;44.014;20.466;2022-12-05T09:09:04;51.13;;;27.17;;
57746;SDS011;43580;44.014;20.466;2022-12-05T09:11:34;40.22;;;23.23;;
57746;SDS011;43580;44.014;20.466;2022-12-05T09:14:00;32.83;;;20.58;;
57746;SDS011;43580;44.014;20.466;2022-12-05T09:16:31;32.90;;;21.33;;
57746;SDS011;43580;44.014;20.466;2022-12-05T09:18:58;27.90;;;18.95;;
57746;SDS011;43580;44.014;20.466;2022-12-05T09:21:25;31.42;;;19.85;;
57746;SDS011;43580;44.014;20.466;2022-12-05T09:23:51;28.50;;;16.25;;
57746;SDS011;43580;44.014;20.466;2022-12-05T09:26:19;31.83;;;21.42;;
57746;SDS011;43580;44.014;20.466;2022-12-05T09:28:47;30.35;;;19.92;;
57746;SDS011;43580;44.014;20.466;2022-12-05T09:31:14;17.45;;;10.57;;
57746;SDS011;43580;44.014;20.466;2022-12-05T09:33:40;31.65;;;18.27;;
57746;SDS011;43580;44.014;20.466;2022-12-05T09:36:08;26.40;;;15.98;;
57746;SDS011;43580;44.014;20.466;2022-12-05T09:38:36;21.90;;;13.45;;
57746;SDS011;43580;44.014;20.466;2022-12-05T09:41:16;19.27;;;12.32;;
57746;SDS011;43580;44.014;20.466;2022-12-05T09:44:06;46.17;;;22.13;;
57746;SDS011;43580;44.014;20.466;2022-12-05T09:49:15;27.65;;;17.02;;
57746;SDS011;43580;44.014;20.466;2022-12-05T09:51:43;28.25;;;17.23;;
57746;SDS011;43580;44.014;20.466;2022-12-05T09:54:10;33.15;;;21.35;;
57746;SDS011;43580;44.014;20.466;2022-12-05T09:56:37;32.47;;;21.52;;
57746;SDS011;43580;44.014;20.466;2022-12-05T09:59:08;22.85;;;13.20;;
57746;SDS011;43580;44.014;20.466;2022-12-05T10:11:57;22.15;;;12.85;;
57746;SDS011;43580;44.014;20.466;2022-12-05T10:15:02;21.52;;;13.45;;
57746;SDS011;43580;44.014;20.466;2022-12-05T10:17:22;21.13;;;12.68;;
57746;SDS011;43580;44.014;20.466;2022-12-05T10:19:50;23.40;;;13.68;;
57746;SDS011;43580;44.014;20.466;2022-12-05T10:22:24;23.33;;;14.13;;
57746;SDS011;43580;44.014;20.466;2022-12-05T10:24:54;25.38;;;14.15;;
57746;SDS011;43580;44.014;20.466;2022-12-05T10:27:40;27.08;;;15.80;;
57746;SDS011;43580;44.014;20.466;2022-12-05T10:30:14;20.13;;;12.77;;
57746;SDS011;43580;44.014;20.466;2022-12-05T10:35:14;21.98;;;13.35;;
57746;SDS011;43580;44.014;20.466;2022-12-05T10:37:43;18.73;;;11.95;;
57746;SDS011;43580;44.014;20.466;2022-12-05T10:40:14;24.48;;;14.57;;
57746;SDS011;43580;44.014;20.466;2022-12-05T10:42:40;36.95;;;20.08;;
57746;SDS011;43580;44.014;20.466;2022-12-05T10:45:12;20.65;;;13.52;;
57746;SDS011;43580;44.014;20.466;2022-12-05T10:47:38;24.50;;;12.52;;
57746;SDS011;43580;44.014;20.466;2022-12-05T10:50:50;20.05;;;11.35;;
57746;SDS011;43580;44.014;20.466;2022-12-05T10:52:51;26.58;;;17.35;;
57746;SDS011;43580;44.014;20.466;2022-12-05T10:55:24;26.98;;;16.10;;
57746;SDS011;43580;44.014;20.466;2022-12-05T10:58:07;28.70;;;17.65;;
57746;SDS011;43580;44.014;20.466;2022-12-05T11:00:33;27.92;;;17.05;;
57746;SDS011;43580;44.014;20.466;2022-12-05T11:03:00;23.05;;;14.30;;
57746;SDS011;43580;44.014;20.466;2022-12-05T11:05:30;26.08;;;16.65;;
57746;SDS011;43580;44.014;20.466;2022-12-05T11:07:59;30.98;;;19.83;;
57746;SDS011;43580;44.014;20.466;2022-12-05T11:10:26;26.63;;;16.75;;
57746;SDS011;43580;44.014;20.466;2022-12-05T11:12:55;36.28;;;18.23;;
57746;SDS011;43580;44.014;20.466;2022-12-05T11:15:28;38.20;;;22.15;;
57746;SDS011;43580;44.014;20.466;2022-12-05T11:17:55;34.60;;;21.55;;
57746;SDS011;43580;44.014;20.466;2022-12-05T11:22:49;41.75;;;20.08;;
57746;SDS011;43580;44.014;20.466;2022-12-05T11:27:54;52.78;;;26.42;;
57746;SDS011;43580;44.014;20.466;2022-12-05T11:30:21;41.67;;;19.52;;
57746;SDS011;43580;44.014;20.466;2022-12-05T11:32:48;32.42;;;17.92;;
57746;SDS011;43580;44.014;20.466;2022-12-05T11:42:47;42.75;;;23.23;;
57746;SDS011;43580;44.014;20.466;2022-12-05T11:50:31;33.05;;;16.88;;
57746;SDS011;43580;44.014;20.466;2022-12-05T11:53:13;33.92;;;19.33;;
57746;SDS011;43580;44.014;20.466;2022-12-05T11:55:42;27.73;;;15.60;;
57746;SDS011;43580;44.014;20.466;2022-12-05T12:08:37;38.13;;;21.33;;
57746;SDS011;43580;44.014;20.466;2022-12-05T12:24:24;28.00;;;16.85;;
57746;SDS011;43580;44.014;20.466;2022-12-05T12:29:38;37.13;;;21.10;;
57746;SDS011;43580;44.014;20.466;2022-12-05T12:37:16;43.25;;;25.70;;
57746;SDS011;43580;44.014;20.466;2022-12-05T12:42:23;37.75;;;22.15;;
57746;SDS011;43580;44.014;20.466;2022-12-05T12:55:24;42.28;;;22.20;;
57746;SDS011;43580;44.014;20.466;2022-12-05T13:03:09;37.75;;;20.33;;
57746;SDS011;43580;44.014;20.466;2022-12-05T13:05:38;56.72;;;29.80;;
57746;SDS011;43580;44.014;20.466;2022-12-05T13:08:28;28.80;;;13.90;;
57746;SDS011;43580;44.014;20.466;2022-12-05T13:10:52;57.35;;;27.23;;
57746;SDS011;43580;44.014;20.466;2022-12-05T13:13:26;54.85;;;27.98;;
57746;SDS011;43580;44.014;20.466;2022-12-05T13:15:57;34.50;;;21.10;;
57746;SDS011;43580;44.014;20.466;2022-12-05T13:18:25;37.30;;;22.13;;
57746;SDS011;43580;44.014;20.466;2022-12-05T13:20:52;41.75;;;22.63;;
57746;SDS011;43580;44.014;20.466;2022-12-05T13:23:29;45.65;;;26.70;;
57746;SDS011;43580;44.014;20.466;2022-12-05T13:25:57;27.83;;;14.38;;
57746;SDS011;43580;44.014;20.466;2022-12-05T13:30:53;37.95;;;20.45;;
57746;SDS011;43580;44.014;20.466;2022-12-05T13:33:25;59.08;;;28.88;;
57746;SDS011;43580;44.014;20.466;2022-12-05T13:35:53;42.53;;;24.17;;
57746;SDS011;43580;44.014;20.466;2022-12-05T13:38:39;61.10;;;29.52;;
57746;SDS011;43580;44.014;20.466;2022-12-05T13:41:40;58.55;;;29.23;;
57746;SDS011;43580;44.014;20.466;2022-12-05T13:44:33;115.95;;;60.53;;
57746;SDS011;43580;44.014;20.466;2022-12-05T13:47:00;72.93;;;40.28;;
57746;SDS011;43580;44.014;20.466;2022-12-05T13:50:15;54.65;;;32.28;;
57746;SDS011;43580;44.014;20.466;2022-12-05T13:52:22;40.88;;;23.50;;
57746;SDS011;43580;44.014;20.466;2022-12-05T13:57:48;50.58;;;26.95;;
57746;SDS011;43580;44.014;20.466;2022-12-05T14:10:12;40.83;;;26.25;;
57746;SDS011;43580;44.014;20.466;2022-12-05T14:33:29;42.72;;;25.42;;
57746;SDS011;43580;44.014;20.466;2022-12-05T14:35:55;71.13;;;43.00;;
57746;SDS011;43580;44.014;20.466;2022-12-05T14:38:30;49.05;;;30.38;;
57746;SDS011;43580;44.014;20.466;2022-12-05T14:41:09;45.20;;;28.05;;
57746;SDS011;43580;44.014;20.466;2022-12-05T14:43:36;48.90;;;30.88;;
57746;SDS011;43580;44.014;20.466;2022-12-05T14:46:05;68.38;;;42.72;;
57746;SDS011;43580;44.014;20.466;2022-12-05T14:48:33;101.53;;;62.83;;
57746;SDS011;43580;44.014;20.466;2022-12-05T14:50:59;141.75;;;85.40;;
57746;SDS011;43580;44.014;20.466;2022-12-05T14:55:55;175.35;;;107.78;;
57746;SDS011;43580;44.014;20.466;2022-12-05T14:58:31;190.82;;;109.35;;
57746;SDS011;43580;44.014;20.466;2022-12-05T15:01:00;195.05;;;110.63;;
57746;SDS011;43580;44.014;20.466;2022-12-05T15:03:36;190.63;;;112.43;;
57746;SDS011;43580;44.014;20.466;2022-12-05T15:06:04;182.13;;;106.85;;
57746;SDS011;43580;44.014;20.466;2022-12-05T15:08:32;153.05;;;88.95;;
57746;SDS011;43580;44.014;20.466;2022-12-05T15:10:59;169.40;;;98.07;;
57746;SDS011;43580;44.014;20.466;2022-12-05T15:13:26;158.18;;;96.20;;
57746;SDS011;43580;44.014;20.466;2022-12-05T15:15:59;153.18;;;87.78;;
57746;SDS011;43580;44.014;20.466;2022-12-05T15:18:37;140.05;;;75.63;;
57746;SDS011;43580;44.014;20.466;2022-12-05T15:23:56;209.13;;;107.13;;
57746;SDS011;43580;44.014;20.466;2022-12-05T15:29:04;138.95;;;81.25;;
57746;SDS011;43580;44.014;20.466;2022-12-05T15:31:31;147.75;;;81.88;;
57746;SDS011;43580;44.014;20.466;2022-12-05T15:34:44;137.07;;;78.97;;
57746;SDS011;43580;44.014;20.466;2022-12-05T15:36:45;141.57;;;83.85;;
57746;SDS011;43580;44.014;20.466;2022-12-05T15:39:22;133.13;;;80.53;;
57746;SDS011;43580;44.014;20.466;2022-12-05T15:41:52;173.48;;;93.57;;
57746;SDS011;43580;44.014;20.466;2022-12-05T15:44:19;161.30;;;93.45;;
57746;SDS011;43580;44.014;20.466;2022-12-05T15:46:51;201.18;;;120.47;;
57746;SDS011;43580;44.014;20.466;2022-12-05T15:49:24;190.80;;;111.43;;
57746;SDS011;43580;44.014;20.466;2022-12-05T15:51:59;160.23;;;95.10;;
57746;SDS011;43580;44.014;20.466;2022-12-05T15:54:30;143.38;;;86.63;;
57746;SDS011;43580;44.014;20.466;2022-12-05T15:57:07;115.55;;;71.97;;
57746;SDS011;43580;44.014;20.466;2022-12-05T16:02:09;124.10;;;77.45;;
57746;SDS011;43580;44.014;20.466;2022-12-05T16:04:40;118.20;;;72.95;;
57746;SDS011;43580;44.014;20.466;2022-12-05T16:07:09;135.40;;;84.68;;
57746;SDS011;43580;44.014;20.466;2022-12-05T16:09:40;122.57;;;81.80;;
57746;SDS011;43580;44.014;20.466;2022-12-05T16:12:51;106.25;;;64.80;;
57746;SDS011;43580;44.014;20.466;2022-12-05T16:14:53;169.45;;;95.72;;
57746;SDS011;43580;44.014;20.466;2022-12-05T16:17:20;176.32;;;101.68;;
57746;SDS011;43580;44.014;20.466;2022-12-05T16:19:49;200.48;;;116.45;;
57746;SDS011;43580;44.014;20.466;2022-12-05T16:24:42;169.05;;;95.38;;
57746;SDS011;43580;44.014;20.466;2022-12-05T16:27:14;179.45;;;102.40;;
57746;SDS011;43580;44.014;20.466;2022-12-05T16:29:41;226.93;;;126.78;;
57746;SDS011;43580;44.014;20.466;2022-12-05T16:32:41;220.40;;;119.07;;
57746;SDS011;43580;44.014;20.466;2022-12-05T16:35:00;197.45;;;107.63;;
57746;SDS011;43580;44.014;20.466;2022-12-05T16:37:26;211.82;;;114.47;;
57746;SDS011;43580;44.014;20.466;2022-12-05T16:39:55;275.58;;;156.40;;
57746;SDS011;43580;44.014;20.466;2022-12-05T16:42:24;252.38;;;139.25;;
57746;SDS011;43580;44.014;20.466;2022-12-05T16:47:22;258.95;;;140.95;;
57746;SDS011;43580;44.014;20.466;2022-12-05T16:49:48;203.18;;;115.03;;
57746;SDS011;43580;44.014;20.466;2022-12-05T16:52:14;259.35;;;143.10;;
57746;SDS011;43580;44.014;20.466;2022-12-05T16:54:41;232.45;;;132.63;;
57746;SDS011;43580;44.014;20.466;2022-12-05T16:57:08;311.48;;;208.50;;
57746;SDS011;43580;44.014;20.466;2022-12-05T16:59:37;216.48;;;108.93;;
57746;SDS011;43580;44.014;20.466;2022-12-05T17:02:04;247.60;;;124.03;;
57746;SDS011;43580;44.014;20.466;2022-12-05T17:04:32;249.50;;;122.75;;